createdAt,value
2018-09-11T00:02:02.917Z,16.90
2018-09-11T00:04:30.607Z,16.90
2018-09-11T00:06:58.233Z,16.80
2018-09-11T00:09:25.910Z,16.80
2018-09-11T00:11:53.578Z,16.80
2018-09-11T00:14:21.261Z,16.80
2018-09-11T00:16:49.109Z,16.80
2018-09-11T00:19:16.774Z,16.80
2018-09-11T00:21:45.273Z,16.70
2018-09-11T00:24:12.968Z,16.60
2018-09-11T00:26:41.035Z,16.60
2018-09-11T00:29:09.691Z,16.60
2018-09-11T00:31:37.425Z,16.50
2018-09-11T00:34:05.110Z,16.50
2018-09-11T00:36:32.793Z,16.40
2018-09-11T00:39:00.470Z,16.40
2018-09-11T00:41:28.146Z,16.30
2018-09-11T00:43:55.825Z,16.20
2018-09-11T00:46:23.481Z,16.20
2018-09-11T00:48:51.643Z,16.20
2018-09-11T00:51:19.293Z,16.10
2018-09-11T00:56:26.096Z,16.10
2018-09-11T00:58:53.766Z,15.90
2018-09-11T01:01:21.962Z,15.90
2018-09-11T01:03:49.894Z,15.90
2018-09-11T01:06:17.557Z,15.90
2018-09-11T01:08:45.297Z,15.90
2018-09-11T01:11:13.553Z,15.90
2018-09-11T01:13:41.419Z,15.90
2018-09-11T01:16:09.689Z,15.90
2018-09-11T01:18:37.346Z,15.90
2018-09-11T01:21:05.206Z,15.80
2018-09-11T01:23:32.930Z,15.80
2018-09-11T01:26:00.615Z,15.70
2018-09-11T01:28:28.273Z,15.70
2018-09-11T01:30:56.086Z,15.70
2018-09-11T01:33:23.726Z,15.60
2018-09-11T01:35:51.406Z,15.60
2018-09-11T01:38:19.250Z,15.70
2018-09-11T01:40:46.940Z,15.60
2018-09-11T01:43:14.585Z,15.60
2018-09-11T01:45:42.309Z,15.60
2018-09-11T01:48:10.546Z,15.60
2018-09-11T01:50:38.226Z,15.60
2018-09-11T01:53:05.989Z,15.60
2018-09-11T01:55:33.694Z,15.60
2018-09-11T01:58:01.439Z,15.60
2018-09-11T02:00:29.102Z,15.60
2018-09-11T02:02:56.757Z,15.50
2018-09-11T02:05:24.458Z,15.50
2018-09-11T02:07:52.154Z,15.50
2018-09-11T02:10:19.893Z,15.50
2018-09-11T02:12:47.538Z,15.50
2018-09-11T02:15:15.294Z,15.40
2018-09-11T02:17:43.067Z,15.30
2018-09-11T02:20:10.801Z,15.40
2018-09-11T02:22:38.492Z,15.30
2018-09-11T02:25:06.893Z,15.30
2018-09-11T02:27:35.200Z,15.30
2018-09-11T02:30:02.895Z,15.30
2018-09-11T02:32:30.569Z,15.20
2018-09-11T02:34:58.372Z,15.20
2018-09-11T02:37:26.047Z,15.20
2018-09-11T02:39:53.734Z,15.20
2018-09-11T02:42:21.463Z,15.20
2018-09-11T02:44:49.793Z,15.30
2018-09-11T02:47:17.493Z,15.30
2018-09-11T02:49:45.350Z,15.30
2018-09-11T02:52:13.098Z,15.30
2018-09-11T02:54:41.230Z,15.40
2018-09-11T02:57:08.917Z,15.40
2018-09-11T02:59:36.673Z,15.40
2018-09-11T03:02:04.353Z,15.40
2018-09-11T03:04:32.044Z,15.40
2018-09-11T03:06:59.730Z,15.40
2018-09-11T03:09:28.055Z,15.40
2018-09-11T03:11:55.782Z,15.30
2018-09-11T03:14:23.493Z,15.30
2018-09-11T03:16:51.645Z,15.30
2018-09-11T03:19:20.275Z,15.20
2018-09-11T03:21:48.034Z,15.20
2018-09-11T03:24:15.719Z,15.10
2018-09-11T03:26:44.495Z,14.90
2018-09-11T03:29:12.193Z,14.80
2018-09-11T03:31:40.239Z,14.70
2018-09-11T03:34:07.951Z,14.70
2018-09-11T03:36:36.261Z,14.70
2018-09-11T03:39:05.426Z,14.60
2018-09-11T03:41:33.110Z,14.60
2018-09-11T03:44:00.784Z,14.50
2018-09-11T03:46:28.481Z,14.50
2018-09-11T03:49:19.944Z,14.50
2018-09-11T03:52:05.162Z,14.40
2018-09-11T03:54:32.819Z,14.40
2018-09-11T03:57:00.490Z,14.50
2018-09-11T03:59:28.173Z,14.40
2018-09-11T04:01:55.866Z,14.40
2018-09-11T04:04:23.527Z,14.40
2018-09-11T04:06:51.254Z,14.40
2018-09-11T04:09:18.943Z,14.20
2018-09-11T04:11:46.805Z,14.20
2018-09-11T04:14:14.474Z,14.20
2018-09-11T04:16:42.165Z,14.20
2018-09-11T04:19:09.894Z,14.20
2018-09-11T04:21:37.603Z,14.20
2018-09-11T04:24:05.469Z,14.10
2018-09-11T04:26:33.250Z,14.20
2018-09-11T04:29:00.994Z,14.10
2018-09-11T04:31:28.773Z,14.20
2018-09-11T04:33:56.554Z,14.20
2018-09-11T04:36:24.287Z,14.20
2018-09-11T04:38:51.947Z,14.20
2018-09-11T04:41:19.704Z,14.30
2018-09-11T04:43:47.489Z,14.30
2018-09-11T04:46:15.259Z,14.30
2018-09-11T04:48:44.469Z,14.30
2018-09-11T04:51:12.193Z,14.20
2018-09-11T04:53:40.186Z,14.20
2018-09-11T04:56:08.324Z,14.30
2018-09-11T04:58:37.179Z,14.30
2018-09-11T05:01:04.898Z,14.20
2018-09-11T05:03:32.721Z,14.20
2018-09-11T05:06:00.446Z,14.20
2018-09-11T05:08:28.252Z,14.20
2018-09-11T05:10:56.043Z,14.20
2018-09-11T05:13:23.786Z,14.30
2018-09-11T05:15:51.540Z,14.20
2018-09-11T05:18:19.414Z,14.20
2018-09-11T05:20:47.443Z,14.30
2018-09-11T05:23:15.536Z,14.30
2018-09-11T05:25:43.235Z,14.30
2018-09-11T05:28:10.947Z,14.30
2018-09-11T05:30:38.605Z,14.40
2018-09-11T05:33:06.597Z,14.40
2018-09-11T05:35:34.361Z,14.40
2018-09-11T05:38:02.613Z,14.50
2018-09-11T05:40:30.314Z,14.50
2018-09-11T05:42:58.094Z,14.50
2018-09-11T05:45:26.422Z,14.60
2018-09-11T05:47:54.093Z,14.70
2018-09-11T05:50:21.798Z,14.70
2018-09-11T05:52:49.696Z,15.00
2018-09-11T05:55:17.492Z,15.00
2018-09-11T05:57:45.194Z,15.10
2018-09-11T06:00:12.937Z,15.20
2018-09-11T06:02:40.690Z,15.30
2018-09-11T06:05:08.385Z,15.20
2018-09-11T06:07:36.098Z,15.30
2018-09-11T06:10:03.902Z,15.30
2018-09-11T06:12:31.618Z,15.20
2018-09-11T06:14:59.313Z,15.10
2018-09-11T06:17:35.025Z,15.20
2018-09-11T06:20:02.860Z,15.20
2018-09-11T06:22:30.601Z,15.20
2018-09-11T06:24:58.323Z,15.30
2018-09-11T06:27:26.005Z,15.40
2018-09-11T06:29:54.381Z,15.40
2018-09-11T06:32:22.113Z,15.40
2018-09-11T06:34:49.857Z,15.40
2018-09-11T06:37:17.582Z,15.40
2018-09-11T06:39:45.344Z,15.60
2018-09-11T06:42:13.037Z,15.60
2018-09-11T06:44:40.749Z,15.80
2018-09-11T06:47:08.495Z,16.00
2018-09-11T06:49:36.150Z,16.10
2018-09-11T06:52:03.869Z,16.20
2018-09-11T06:54:31.677Z,16.40
2018-09-11T06:56:59.447Z,16.50
2018-09-11T06:59:27.146Z,16.70
2018-09-11T07:01:55.004Z,17.00
2018-09-11T07:04:22.804Z,17.10
2018-09-11T07:06:50.478Z,17.30
2018-09-11T07:09:18.161Z,17.40
2018-09-11T07:11:45.830Z,17.50
2018-09-11T07:14:13.622Z,17.80
2018-09-11T07:16:41.273Z,17.80
2018-09-11T07:19:08.979Z,18.00
2018-09-11T07:21:36.670Z,18.10
2018-09-11T07:24:04.502Z,18.30
2018-09-11T07:26:33.557Z,18.40
2018-09-11T07:29:01.362Z,18.60
2018-09-11T07:31:29.016Z,18.70
2018-09-11T07:33:56.749Z,18.80
2018-09-11T07:36:24.458Z,18.80
2018-09-11T07:38:52.214Z,18.90
2018-09-11T07:41:19.917Z,18.90
2018-09-11T07:43:47.613Z,19.00
2018-09-11T07:46:15.277Z,19.00
2018-09-11T07:48:42.986Z,19.10
2018-09-11T07:51:10.637Z,19.00
2018-09-11T07:53:38.307Z,19.00
2018-09-11T07:56:06.011Z,19.20
2018-09-11T07:58:33.704Z,19.30
2018-09-11T08:01:01.342Z,19.40
2018-09-11T08:03:29.143Z,19.40
2018-09-11T08:05:56.917Z,19.50
2018-09-11T08:08:24.624Z,19.50
2018-09-11T08:10:52.445Z,19.50
2018-09-11T08:13:20.137Z,19.60
2018-09-11T08:15:48.098Z,19.60
2018-09-11T08:18:15.770Z,19.70
2018-09-11T08:20:46.599Z,19.90
2018-09-11T08:23:14.294Z,20.00
2018-09-11T08:25:41.959Z,20.10
2018-09-11T08:28:09.646Z,20.30
2018-09-11T08:30:37.307Z,20.40
2018-09-11T08:33:05.318Z,20.50
2018-09-11T08:35:32.974Z,20.60
2018-09-11T08:38:00.727Z,20.70
2018-09-11T08:40:28.434Z,20.90
2018-09-11T08:42:56.133Z,21.10
2018-09-11T08:45:23.833Z,21.20
2018-09-11T08:47:52.154Z,21.40
2018-09-11T08:50:19.881Z,21.60
2018-09-11T08:52:47.600Z,21.70
2018-09-11T08:55:15.302Z,21.80
2018-09-11T08:57:42.962Z,21.80
2018-09-11T09:00:11.230Z,21.90
2018-09-11T09:02:38.899Z,22.10
2018-09-11T09:05:08.055Z,22.20
2018-09-11T09:07:36.610Z,22.30
2018-09-11T09:10:04.611Z,22.40
2018-09-11T09:12:32.276Z,22.60
2018-09-11T09:15:00.019Z,22.60
2018-09-11T09:17:27.730Z,22.60
2018-09-11T09:19:55.462Z,22.70
2018-09-11T09:22:23.157Z,22.60
2018-09-11T09:24:50.849Z,22.70
2018-09-11T09:27:18.568Z,22.70
2018-09-11T09:29:46.254Z,22.80
2018-09-11T09:32:13.905Z,22.90
2018-09-11T09:34:41.614Z,23.00
2018-09-11T09:37:09.818Z,23.10
2018-09-11T09:39:37.492Z,23.10
2018-09-11T09:42:05.228Z,23.20
2018-09-11T09:44:32.912Z,23.20
2018-09-11T09:47:00.603Z,23.20
2018-09-11T09:49:28.260Z,23.20
2018-09-11T09:51:55.945Z,23.30
2018-09-11T09:54:23.835Z,23.40
2018-09-11T09:56:51.555Z,23.30
2018-09-11T09:59:19.210Z,23.50
2018-09-11T10:01:52.733Z,23.50
2018-09-11T10:04:20.421Z,23.50
2018-09-11T10:06:48.078Z,23.60
2018-09-11T10:09:15.725Z,23.60
2018-09-11T10:11:43.476Z,23.70
2018-09-11T10:14:11.091Z,23.80
2018-09-11T10:16:38.781Z,23.80
2018-09-11T10:19:06.517Z,23.90
2018-09-11T10:21:34.195Z,23.90
2018-09-11T10:24:01.973Z,24.00
2018-09-11T10:26:29.674Z,24.10
2018-09-11T10:28:57.330Z,24.30
2018-09-11T10:31:25.015Z,24.30
2018-09-11T10:33:52.721Z,24.40
2018-09-11T10:36:20.411Z,24.40
2018-09-11T10:38:48.062Z,24.50
2018-09-11T10:41:15.758Z,24.50
2018-09-11T10:43:44.322Z,24.50
2018-09-11T10:46:12.042Z,24.50
2018-09-11T10:48:39.781Z,24.60
2018-09-11T10:51:07.440Z,24.70
2018-09-11T10:53:35.082Z,24.90
2018-09-11T10:56:02.797Z,24.80
2018-09-11T10:58:30.498Z,24.90
2018-09-11T11:00:58.163Z,25.00
2018-09-11T11:03:25.847Z,25.10
2018-09-11T11:05:53.833Z,25.30
2018-09-11T11:08:21.553Z,25.40
2018-09-11T11:10:49.218Z,25.30
2018-09-11T11:13:16.897Z,25.30
2018-09-11T11:15:44.530Z,25.40
2018-09-11T11:18:12.246Z,25.50
2018-09-11T11:20:40.022Z,25.50
2018-09-11T11:23:08.236Z,25.70
2018-09-11T11:25:35.905Z,26.10
2018-09-11T11:28:03.630Z,26.00
2018-09-11T11:30:31.380Z,25.90
2018-09-11T11:32:59.065Z,25.90
2018-09-11T11:35:26.753Z,25.90
2018-09-11T11:37:54.483Z,26.00
2018-09-11T11:40:22.148Z,26.00
2018-09-11T11:42:50.166Z,26.20
2018-09-11T11:45:17.886Z,26.50
2018-09-11T11:47:45.593Z,26.60
2018-09-11T11:50:13.770Z,26.60
2018-09-11T11:52:41.498Z,26.60
2018-09-11T11:55:09.209Z,26.70
2018-09-11T11:57:36.906Z,26.60
2018-09-11T12:00:04.762Z,26.70
2018-09-11T12:02:32.410Z,26.80
2018-09-11T12:05:00.098Z,26.90
2018-09-11T12:07:27.766Z,27.00
2018-09-11T12:09:55.469Z,26.80
2018-09-11T12:12:23.134Z,27.00
2018-09-11T12:14:50.825Z,26.90
2018-09-11T12:17:18.494Z,27.10
2018-09-11T12:19:46.836Z,27.30
2018-09-11T12:22:15.254Z,27.30
2018-09-11T12:24:42.962Z,27.30
2018-09-11T12:27:10.793Z,27.20
2018-09-11T12:29:38.606Z,27.40
2018-09-11T12:32:06.625Z,27.40
2018-09-11T12:34:34.583Z,27.40
2018-09-11T12:37:02.377Z,27.40
2018-09-11T12:39:30.138Z,27.60
2018-09-11T12:41:57.818Z,27.50
2018-09-11T12:44:25.498Z,27.70
2018-09-11T12:46:53.280Z,27.80
2018-09-11T12:49:21.015Z,27.70
2018-09-11T12:51:49.134Z,27.90
2018-09-11T12:54:16.951Z,28.10
2018-09-11T12:56:44.659Z,28.00
2018-09-11T12:59:12.385Z,28.00
2018-09-11T13:01:40.150Z,28.00
2018-09-11T13:04:08.013Z,28.10
2018-09-11T13:06:35.881Z,28.20
2018-09-11T13:09:05.003Z,28.30
2018-09-11T13:11:32.741Z,28.30
2018-09-11T13:14:00.419Z,28.40
2018-09-11T13:16:28.123Z,28.70
2018-09-11T13:18:55.801Z,28.60
2018-09-11T13:21:23.674Z,28.70
2018-09-11T13:23:51.330Z,28.90
2018-09-11T13:26:21.709Z,29.10
2018-09-11T13:28:51.592Z,28.90
2018-09-11T13:31:19.310Z,29.10
2018-09-11T13:33:47.118Z,29.30
2018-09-11T13:36:14.845Z,29.30
2018-09-11T13:38:42.878Z,29.50
2018-09-11T13:41:10.627Z,29.60
2018-09-11T13:43:38.318Z,29.80
2018-09-11T13:46:06.073Z,29.70
2018-09-11T13:48:33.746Z,29.50
2018-09-11T13:51:01.438Z,29.60
2018-09-11T13:53:29.105Z,29.90
2018-09-11T13:55:56.812Z,30.10
2018-09-11T13:58:24.488Z,30.40
2018-09-11T14:00:52.150Z,30.80
2018-09-11T14:03:19.926Z,31.70
2018-09-11T14:05:47.587Z,33.00
2018-09-11T14:08:15.351Z,34.00
2018-09-11T14:10:45.892Z,35.30
2018-09-11T14:13:13.634Z,36.70
2018-09-11T14:15:41.364Z,36.40
2018-09-11T14:18:09.159Z,36.40
2018-09-11T14:20:36.830Z,36.70
2018-09-11T14:23:04.811Z,36.20
2018-09-11T14:25:32.550Z,36.30
2018-09-11T14:28:00.249Z,37.10
2018-09-11T14:30:27.936Z,37.20
2018-09-11T14:32:56.094Z,38.20
2018-09-11T14:35:23.841Z,38.50
2018-09-11T14:37:51.535Z,39.00
2018-09-11T14:40:19.197Z,37.80
2018-09-11T14:42:46.877Z,38.30
2018-09-11T14:45:14.675Z,38.80
2018-09-11T14:47:43.239Z,39.60
2018-09-11T14:50:12.238Z,38.70
2018-09-11T14:52:40.066Z,37.10
2018-09-11T14:55:08.385Z,36.10
2018-09-11T14:57:36.100Z,36.80
2018-09-11T15:00:04.390Z,37.30
2018-09-11T15:02:32.097Z,37.00
2018-09-11T15:04:59.758Z,35.70
2018-09-11T15:07:27.497Z,36.10
2018-09-11T15:09:55.190Z,36.70
2018-09-11T15:12:23.707Z,37.60
2018-09-11T15:14:51.750Z,38.40
2018-09-11T15:17:19.550Z,38.40
2018-09-11T15:19:47.260Z,38.20
2018-09-11T15:22:15.352Z,39.30
2018-09-11T15:24:43.170Z,38.40
2018-09-11T15:27:10.822Z,37.60
2018-09-11T15:29:38.730Z,37.60
2018-09-11T15:32:06.657Z,36.70
2018-09-11T15:34:34.381Z,37.20
2018-09-11T15:37:03.515Z,37.80
2018-09-11T15:39:31.431Z,36.70
2018-09-11T15:41:59.102Z,35.90
2018-09-11T15:44:27.654Z,36.10
2018-09-11T15:46:55.853Z,35.50
2018-09-11T15:49:23.601Z,35.80
2018-09-11T15:51:51.355Z,35.70
2018-09-11T15:54:19.075Z,36.40
2018-09-11T15:56:46.770Z,36.50
2018-09-11T15:59:14.527Z,36.40
2018-09-11T16:01:42.202Z,36.70
2018-09-11T16:04:09.942Z,37.70
2018-09-11T16:06:37.607Z,37.80
2018-09-11T16:09:07.821Z,36.70
2018-09-11T16:11:35.502Z,36.90
2018-09-11T16:14:03.301Z,38.00
2018-09-11T16:16:30.958Z,38.00
2018-09-11T16:18:58.689Z,37.60
2018-09-11T16:22:29.143Z,37.30
2018-09-11T16:24:56.961Z,37.60
2018-09-11T16:27:24.669Z,37.90
2018-09-11T16:29:52.934Z,37.20
2018-09-11T16:32:20.802Z,36.50
2018-09-11T16:34:48.595Z,37.30
2018-09-11T16:37:16.318Z,37.30
2018-09-11T16:40:01.759Z,37.20
2018-09-11T16:42:29.561Z,36.60
2018-09-11T16:44:57.246Z,35.60
2018-09-11T16:47:24.918Z,35.60
2018-09-11T16:49:53.825Z,36.00
2018-09-11T16:52:21.514Z,35.60
2018-09-11T16:54:49.200Z,35.60
2018-09-11T16:57:17.030Z,36.00
2018-09-11T16:59:44.774Z,35.30
2018-09-11T17:02:12.452Z,35.70
2018-09-11T17:04:40.121Z,35.10
2018-09-11T17:07:08.329Z,34.30
2018-09-11T17:09:36.015Z,33.80
2018-09-11T17:12:03.794Z,33.60
2018-09-11T17:14:31.726Z,33.30
2018-09-11T17:16:59.561Z,32.80
2018-09-11T17:19:27.258Z,32.20
2018-09-11T17:21:55.373Z,30.90
2018-09-11T17:24:23.095Z,29.70
2018-09-11T17:26:50.786Z,28.70
2018-09-11T17:29:19.070Z,28.00
2018-09-11T17:31:46.765Z,27.50
2018-09-11T17:34:14.471Z,27.10
2018-09-11T17:36:44.788Z,26.90
2018-09-11T17:39:13.235Z,26.80
2018-09-11T17:41:41.370Z,26.50
2018-09-11T17:44:09.570Z,26.40
2018-09-11T17:46:37.524Z,26.20
2018-09-11T17:49:05.354Z,26.10
2018-09-11T17:51:33.570Z,25.90
2018-09-11T17:54:01.554Z,25.80
2018-09-11T17:56:29.478Z,25.80
2018-09-11T17:58:57.830Z,25.60
2018-09-11T18:01:25.879Z,25.40
2018-09-11T18:03:53.622Z,25.30
2018-09-11T18:06:21.450Z,25.30
2018-09-11T18:08:49.285Z,25.10
2018-09-11T18:11:17.612Z,25.10
2018-09-11T18:13:45.299Z,25.00
2018-09-11T18:16:13.034Z,24.90
2018-09-11T18:18:40.830Z,24.80
2018-09-11T18:21:13.291Z,24.70
2018-09-11T18:23:41.086Z,24.60
2018-09-11T18:26:08.865Z,24.50
2018-09-11T18:28:36.533Z,24.30
2018-09-11T18:31:05.486Z,24.30
2018-09-11T18:33:33.162Z,24.20
2018-09-11T18:36:01.003Z,24.10
2018-09-11T18:38:28.691Z,24.10
2018-09-11T18:40:56.423Z,24.00
2018-09-11T18:43:24.287Z,23.80
2018-09-11T18:45:52.230Z,23.80
2018-09-11T18:48:19.899Z,23.80
2018-09-11T18:50:47.738Z,23.80
2018-09-11T18:53:15.484Z,23.70
2018-09-11T18:55:43.303Z,23.60
2018-09-11T18:58:11.002Z,23.60
2018-09-11T19:00:38.791Z,23.60
2018-09-11T19:03:06.553Z,23.50
2018-09-11T19:05:34.238Z,23.40
2018-09-11T19:08:02.400Z,23.30
2018-09-11T19:10:30.446Z,23.30
2018-09-11T19:12:58.254Z,23.10
2018-09-11T19:15:26.597Z,23.00
2018-09-11T19:17:54.327Z,23.00
2018-09-11T19:20:22.083Z,23.00
2018-09-11T19:22:50.001Z,22.90
2018-09-11T19:25:17.755Z,22.90
2018-09-11T19:27:48.692Z,22.90
2018-09-11T19:30:16.457Z,22.80
2018-09-11T19:32:44.147Z,22.70
2018-09-11T19:35:11.889Z,22.60
2018-09-11T19:37:39.657Z,22.60
2018-09-11T19:40:07.424Z,22.40
2018-09-11T19:42:35.147Z,22.40
2018-09-11T19:45:03.358Z,22.40
2018-09-11T19:47:32.129Z,22.30
2018-09-11T19:49:59.814Z,22.30
2018-09-11T19:52:28.078Z,22.30
2018-09-11T19:54:55.795Z,22.30
2018-09-11T19:57:23.526Z,22.20
2018-09-11T19:59:51.219Z,22.10
2018-09-11T20:02:18.927Z,22.10
2018-09-11T20:04:47.834Z,22.00
2018-09-11T20:07:15.503Z,22.00
2018-09-11T20:09:43.600Z,21.90
2018-09-11T20:12:11.379Z,21.80
2018-09-11T20:14:39.212Z,21.70
2018-09-11T20:17:08.252Z,21.70
2018-09-11T20:19:39.015Z,21.70
2018-09-11T20:22:09.290Z,21.60
2018-09-11T20:24:37.066Z,21.50
2018-09-11T20:27:04.967Z,21.50
2018-09-11T20:29:32.822Z,21.40
2018-09-11T20:32:00.531Z,21.50
2018-09-11T20:34:28.261Z,21.40
2018-09-11T20:36:55.937Z,21.40
2018-09-11T20:39:23.746Z,21.30
2018-09-11T20:41:51.468Z,21.20
2018-09-11T20:44:19.354Z,21.40
2018-09-11T20:46:47.105Z,21.30
2018-09-11T20:49:14.790Z,21.30
2018-09-11T20:51:42.464Z,21.20
2018-09-11T20:54:10.354Z,21.10
2018-09-11T20:56:38.010Z,21.00
2018-09-11T20:59:05.715Z,20.90
2018-09-11T21:01:33.373Z,20.80
2018-09-11T21:04:01.087Z,20.90
2018-09-11T21:06:28.894Z,20.80
2018-09-11T21:08:56.654Z,20.70
2018-09-11T21:11:24.328Z,20.70
2018-09-11T21:13:52.030Z,20.60
2018-09-11T21:16:19.847Z,20.60
2018-09-11T21:18:47.773Z,20.50
2018-09-11T21:21:15.451Z,20.50
2018-09-11T21:23:43.178Z,20.40
2018-09-11T21:26:10.894Z,20.30
2018-09-11T21:28:38.691Z,20.30
2018-09-11T21:31:06.414Z,20.20
2018-09-11T21:33:34.118Z,20.20
2018-09-11T21:36:01.826Z,20.20
2018-09-11T21:38:29.533Z,20.10
2018-09-11T21:40:57.218Z,20.20
2018-09-11T21:43:25.021Z,20.20
2018-09-11T21:45:52.718Z,20.10
2018-09-11T21:48:20.419Z,20.10
2018-09-11T21:50:48.151Z,20.10
2018-09-11T21:53:15.860Z,20.20
2018-09-11T21:55:43.521Z,20.10
2018-09-11T21:58:11.451Z,20.10
2018-09-11T22:00:44.866Z,20.10
2018-09-11T22:03:12.831Z,20.10
2018-09-11T22:05:40.810Z,20.10
2018-09-11T22:08:08.558Z,20.00
2018-09-11T22:10:36.293Z,20.00
2018-09-11T22:13:03.981Z,20.00
2018-09-11T22:15:31.686Z,20.00
2018-09-11T22:17:59.512Z,20.00
2018-09-11T22:20:27.283Z,20.00
2018-09-11T22:22:54.970Z,20.00
2018-09-11T22:25:22.650Z,19.90
2018-09-11T22:27:50.737Z,19.90
2018-09-11T22:30:18.662Z,19.90
2018-09-11T22:32:46.398Z,19.90
2018-09-11T22:35:14.694Z,19.80
2018-09-11T22:37:42.531Z,19.80
2018-09-11T22:40:10.262Z,19.80
2018-09-11T22:42:37.943Z,19.70
2018-09-11T22:45:05.709Z,19.60
2018-09-11T22:47:33.623Z,19.60
2018-09-11T22:50:01.362Z,19.50
2018-09-11T22:52:29.746Z,19.50
2018-09-11T22:54:57.477Z,19.50
2018-09-11T22:57:25.174Z,19.50
2018-09-11T22:59:53.031Z,19.40
2018-09-11T23:02:20.714Z,19.40
2018-09-11T23:04:48.429Z,19.40
2018-09-11T23:07:16.094Z,19.40
2018-09-11T23:09:43.822Z,19.30
2018-09-11T23:12:11.546Z,19.30
2018-09-11T23:14:39.291Z,19.30
2018-09-11T23:17:07.056Z,19.30
2018-09-11T23:19:35.238Z,19.20
2018-09-11T23:22:03.022Z,19.10
2018-09-11T23:24:30.755Z,19.10
2018-09-11T23:38:31.210Z,19.00
2018-09-11T23:40:58.794Z,19.00
2018-09-11T23:43:26.334Z,18.90
2018-09-11T23:45:53.924Z,18.90
2018-09-11T23:48:21.513Z,18.90
2018-09-11T23:50:49.091Z,18.90
2018-09-11T23:53:16.645Z,18.80
2018-09-11T23:55:44.209Z,18.90
2018-09-11T23:58:11.738Z,18.80
